createdAt,value
2022-09-07T00:01:50.173Z,21.74
2022-09-07T00:04:16.890Z,21.98
2022-09-07T00:06:43.657Z,21.77
2022-09-07T00:09:10.317Z,21.57
2022-09-07T00:11:37.021Z,21.75
2022-09-07T00:14:06.072Z,21.76
2022-09-07T00:16:32.749Z,21.86
2022-09-07T00:19:01.419Z,21.64
2022-09-07T00:21:29.340Z,21.66
2022-09-07T00:23:58.580Z,21.75
2022-09-07T00:26:27.163Z,21.77
2022-09-07T00:28:57.584Z,21.75
2022-09-07T00:31:27.018Z,21.64
2022-09-07T00:33:54.569Z,21.70
2022-09-07T00:36:22.870Z,21.59
2022-09-07T00:38:50.133Z,21.47
2022-09-07T00:41:19.983Z,21.47
2022-09-07T00:43:48.627Z,21.55
2022-09-07T00:46:17.704Z,21.40
2022-09-07T00:48:52.095Z,21.49
2022-09-07T00:51:24.644Z,21.46
2022-09-07T00:53:58.151Z,21.32
2022-09-07T00:56:29.006Z,21.36
2022-09-07T00:58:56.315Z,21.35
2022-09-07T01:01:23.057Z,21.40
2022-09-07T01:03:54.567Z,21.34
2022-09-07T01:06:24.801Z,21.36
2022-09-07T01:08:51.839Z,21.24
2022-09-07T01:11:20.861Z,21.07
2022-09-07T01:13:50.008Z,20.84
2022-09-07T01:16:29.755Z,20.78
2022-09-07T01:19:19.597Z,21.01
2022-09-07T01:22:00.388Z,21.17
2022-09-07T01:24:56.208Z,21.29
2022-09-07T01:27:50.478Z,21.40
2022-09-07T01:30:18.986Z,21.38
2022-09-07T01:33:11.941Z,21.21
2022-09-07T01:35:46.893Z,21.18
2022-09-07T01:38:21.580Z,20.82
2022-09-07T01:40:57.425Z,20.90
2022-09-07T01:43:34.181Z,20.96
2022-09-07T01:46:07.142Z,20.80
2022-09-07T01:48:37.879Z,20.80
2022-09-07T01:51:05.249Z,20.85
2022-09-07T01:53:36.858Z,20.67
2022-09-07T01:56:06.937Z,20.72
2022-09-07T01:58:39.508Z,20.69
2022-09-07T02:01:10.052Z,20.73
2022-09-07T02:03:42.388Z,20.78
2022-09-07T02:06:16.939Z,20.87
2022-09-07T02:08:49.428Z,20.85
2022-09-07T02:11:20.068Z,20.85
2022-09-07T02:13:54.439Z,20.85
2022-09-07T02:16:26.665Z,20.79
2022-09-07T02:18:56.494Z,20.83
2022-09-07T02:21:34.120Z,20.69
2022-09-07T02:24:05.656Z,20.63
2022-09-07T02:26:45.747Z,20.69
2022-09-07T02:29:17.340Z,20.72
2022-09-07T02:31:44.201Z,20.65
2022-09-07T02:34:11.655Z,20.67
2022-09-07T02:36:44.662Z,20.65
2022-09-07T02:39:11.760Z,20.64
2022-09-07T02:41:40.724Z,20.66
2022-09-07T02:44:11.964Z,20.54
2022-09-07T02:46:56.412Z,20.56
2022-09-07T02:49:38.423Z,20.60
2022-09-07T02:52:12.544Z,20.61
2022-09-07T02:54:53.511Z,20.60
2022-09-07T02:57:31.785Z,20.66
2022-09-07T03:00:06.411Z,20.66
2022-09-07T03:02:43.581Z,20.49
2022-09-07T03:05:16.477Z,20.51
2022-09-07T03:07:47.944Z,20.38
2022-09-07T03:10:15.944Z,20.30
2022-09-07T03:12:45.519Z,20.22
2022-09-07T03:15:14.145Z,20.23
2022-09-07T03:17:45.596Z,20.09
2022-09-07T03:20:13.072Z,20.17
2022-09-07T03:22:40.133Z,20.07
2022-09-07T03:25:07.964Z,20.20
2022-09-07T03:27:34.875Z,20.07
2022-09-07T03:30:01.876Z,20.08
2022-09-07T03:32:30.354Z,20.08
2022-09-07T03:34:58.445Z,20.15
2022-09-07T03:37:25.340Z,20.05
2022-09-07T03:39:52.031Z,20.10
2022-09-07T03:42:19.194Z,20.03
2022-09-07T03:44:46.279Z,20.01
2022-09-07T03:47:12.912Z,20.01
2022-09-07T03:49:39.555Z,19.93
2022-09-07T03:52:07.905Z,19.96
2022-09-07T03:54:37.800Z,19.85
2022-09-07T03:57:06.849Z,19.89
2022-09-07T03:59:33.949Z,19.82
2022-09-07T04:02:00.900Z,19.73
2022-09-07T04:04:27.938Z,19.80
2022-09-07T04:06:54.849Z,19.75
2022-09-07T04:09:24.523Z,19.75
2022-09-07T04:11:51.276Z,19.72
2022-09-07T04:14:18.267Z,19.70
2022-09-07T04:16:45.308Z,19.54
2022-09-07T04:19:11.908Z,19.57
2022-09-07T04:21:38.704Z,19.64
2022-09-07T04:24:05.784Z,19.58
2022-09-07T04:26:34.945Z,19.57
2022-09-07T04:29:01.918Z,19.53
2022-09-07T04:31:29.892Z,19.53
2022-09-07T04:33:56.680Z,19.45
2022-09-07T04:36:23.545Z,19.40
2022-09-07T04:38:55.162Z,19.42
2022-09-07T04:41:22.944Z,19.44
2022-09-07T04:43:55.763Z,19.37
2022-09-07T04:46:25.688Z,19.44
2022-09-07T04:48:54.483Z,19.38
2022-09-07T04:51:23.020Z,19.38
2022-09-07T04:53:51.279Z,19.38
2022-09-07T04:56:19.286Z,19.29
2022-09-07T04:58:47.287Z,19.48
2022-09-07T05:01:19.747Z,19.43
2022-09-07T05:03:47.071Z,19.53
2022-09-07T05:06:14.780Z,19.54
2022-09-07T05:08:43.880Z,19.64
2022-09-07T05:11:12.262Z,19.75
2022-09-07T05:13:39.821Z,19.77
2022-09-07T05:16:13.428Z,19.85
2022-09-07T05:18:42.691Z,19.74
2022-09-07T05:21:11.784Z,19.85
2022-09-07T05:23:39.052Z,19.89
2022-09-07T05:26:06.277Z,19.86
2022-09-07T05:28:33.447Z,19.88
2022-09-07T05:31:21.708Z,19.98
2022-09-07T05:36:38.735Z,20.09
2022-09-07T05:39:07.183Z,20.16
2022-09-07T05:41:35.033Z,20.25
2022-09-07T05:46:48.892Z,20.35
2022-09-07T05:49:16.889Z,20.38
2022-09-07T05:51:43.906Z,20.57
2022-09-07T05:54:11.084Z,20.75
2022-09-07T05:56:39.859Z,20.98
2022-09-07T05:59:06.778Z,21.28
2022-09-07T06:01:33.449Z,21.51
2022-09-07T06:04:00.545Z,21.55
2022-09-07T06:06:28.778Z,21.54
2022-09-07T06:08:55.461Z,21.61
2022-09-07T06:11:23.916Z,21.60
2022-09-07T06:13:51.646Z,21.88
2022-09-07T06:16:33.089Z,22.27
2022-09-07T06:19:04.593Z,23.00
2022-09-07T06:21:35.714Z,23.63
2022-09-07T06:24:03.639Z,24.17
2022-09-07T06:26:32.523Z,24.73
2022-09-07T06:28:59.350Z,24.88
2022-09-07T06:31:26.367Z,25.10
2022-09-07T06:33:55.668Z,25.13
2022-09-07T06:36:24.230Z,25.37
2022-09-07T06:38:52.655Z,25.59
2022-09-07T06:44:10.444Z,24.45
2022-09-07T06:49:34.023Z,24.20
2022-09-07T06:52:00.912Z,24.10
2022-09-07T06:57:16.026Z,25.18
2022-09-07T06:59:42.961Z,25.88
2022-09-07T07:02:12.030Z,26.45
2022-09-07T07:04:41.094Z,26.39
2022-09-07T07:07:10.792Z,26.20
2022-09-07T07:09:39.072Z,25.47
2022-09-07T07:12:06.804Z,25.41
2022-09-07T07:14:35.539Z,25.30
2022-09-07T07:17:03.066Z,25.40
2022-09-07T07:19:29.800Z,25.67
2022-09-07T07:24:44.786Z,26.58
2022-09-07T07:27:11.495Z,26.45
2022-09-07T07:29:38.376Z,26.15
2022-09-07T07:32:05.207Z,25.81
2022-09-07T07:34:31.946Z,25.60
2022-09-07T07:36:58.726Z,25.92
2022-09-07T07:42:31.336Z,25.82
2022-09-07T07:47:49.025Z,25.87
2022-09-07T07:50:32.086Z,26.07
2022-09-07T07:55:46.870Z,25.92
2022-09-07T07:58:15.135Z,25.92
2022-09-07T08:00:54.231Z,26.26
2022-09-07T08:03:22.937Z,26.95
2022-09-07T08:05:49.549Z,27.47
2022-09-07T08:08:16.197Z,26.87
2022-09-07T08:10:45.749Z,27.10
2022-09-07T08:13:14.461Z,26.97
2022-09-07T08:15:42.135Z,27.29
2022-09-07T08:18:09.888Z,27.85
2022-09-07T08:20:37.899Z,28.41
2022-09-07T08:23:05.153Z,28.68
2022-09-07T08:25:31.664Z,28.73
2022-09-07T08:27:58.341Z,28.93
2022-09-07T08:30:26.421Z,28.96
2022-09-07T08:32:53.093Z,28.95
2022-09-07T08:35:19.659Z,28.81
2022-09-07T08:37:46.412Z,28.86
2022-09-07T08:40:16.428Z,28.91
2022-09-07T08:42:56.993Z,28.94
2022-09-07T08:45:34.482Z,29.03
2022-09-07T08:48:04.938Z,29.56
2022-09-07T08:50:38.124Z,30.18
2022-09-07T08:53:12.410Z,30.57
2022-09-07T08:55:41.755Z,30.78
2022-09-07T08:58:32.288Z,30.70
2022-09-07T09:06:47.879Z,30.88
2022-09-07T09:09:24.195Z,30.80
2022-09-07T09:12:00.405Z,30.72
2022-09-07T09:14:33.664Z,30.30
2022-09-07T09:17:11.130Z,29.76
2022-09-07T09:19:54.684Z,29.81
2022-09-07T09:22:25.083Z,30.19
2022-09-07T09:24:58.625Z,30.29
2022-09-07T09:27:25.240Z,30.53
2022-09-07T09:29:51.836Z,30.73
2022-09-07T09:32:35.491Z,30.50
2022-09-07T09:35:11.892Z,30.17
2022-09-07T09:37:40.346Z,29.88
2022-09-07T09:40:21.233Z,29.76
2022-09-07T09:43:02.502Z,29.96
2022-09-07T09:46:12.263Z,30.13
2022-09-07T09:48:29.111Z,30.08
2022-09-07T09:53:54.732Z,30.03
2022-09-07T09:56:21.685Z,29.84
2022-09-07T10:01:36.369Z,29.10
2022-09-07T10:04:20.291Z,28.89
2022-09-07T10:06:50.717Z,29.04
2022-09-07T10:09:21.584Z,29.21
2022-09-07T10:12:08.686Z,29.48
2022-09-07T10:14:42.395Z,29.59
2022-09-07T10:17:13.977Z,29.70
2022-09-07T10:19:44.260Z,29.82
2022-09-07T10:22:24.569Z,29.95
2022-09-07T10:24:51.625Z,30.34
2022-09-07T10:27:29.957Z,30.57
2022-09-07T10:29:57.060Z,30.60
2022-09-07T10:32:37.761Z,30.74
2022-09-07T10:35:21.099Z,30.58
2022-09-07T10:37:57.886Z,30.35
2022-09-07T10:40:33.860Z,30.85
2022-09-07T10:43:26.545Z,30.95
2022-09-07T10:46:14.291Z,30.89
2022-09-07T10:48:55.680Z,30.81
2022-09-07T10:51:33.775Z,30.70
2022-09-07T10:57:08.302Z,30.79
2022-09-07T11:06:05.925Z,31.10
2022-09-07T11:14:25.551Z,31.30
2022-09-07T11:16:56.806Z,30.60
2022-09-07T11:19:37.434Z,30.46
2022-09-07T11:22:14.292Z,30.37
2022-09-07T11:25:29.034Z,30.00
2022-09-07T11:27:42.100Z,29.83
2022-09-07T11:30:18.576Z,29.99
2022-09-07T11:32:54.289Z,29.97
2022-09-07T11:35:30.230Z,30.09
2022-09-07T11:38:00.758Z,30.62
2022-09-07T11:40:31.463Z,30.50
2022-09-07T11:43:03.082Z,30.06
2022-09-07T11:45:36.035Z,29.80
2022-09-07T11:48:10.813Z,29.76
2022-09-07T11:50:44.905Z,29.73
2022-09-07T11:53:18.115Z,29.56
2022-09-07T11:55:50.689Z,29.61
2022-09-07T11:58:34.186Z,29.77
2022-09-07T12:01:11.890Z,29.72
2022-09-07T12:04:12.079Z,30.30
2022-09-07T12:07:14.992Z,30.92
2022-09-07T12:10:01.718Z,31.17
2022-09-07T12:12:49.460Z,30.99
2022-09-07T12:15:26.711Z,30.77
2022-09-07T12:18:06.731Z,30.74
2022-09-07T12:20:40.345Z,31.05
2022-09-07T12:23:21.841Z,31.26
2022-09-07T12:25:50.032Z,31.42
2022-09-07T12:29:03.956Z,31.41
2022-09-07T12:32:52.581Z,31.46
2022-09-07T12:34:59.071Z,31.29
2022-09-07T12:37:41.393Z,31.73
2022-09-07T12:40:57.101Z,31.60
2022-09-07T12:43:44.839Z,31.56
2022-09-07T12:46:23.786Z,31.44
2022-09-07T12:49:00.979Z,31.68
2022-09-07T12:54:33.893Z,32.04
2022-09-07T12:57:30.640Z,31.68
2022-09-07T13:00:14.750Z,31.38
2022-09-07T13:06:19.133Z,31.21
2022-09-07T13:09:10.698Z,31.15
2022-09-07T13:11:39.267Z,31.34
2022-09-07T13:14:24.816Z,31.54
2022-09-07T13:17:26.593Z,31.24
2022-09-07T13:20:23.315Z,31.03
2022-09-07T13:22:57.547Z,31.22
2022-09-07T13:25:45.345Z,31.65
2022-09-07T13:28:21.435Z,31.92
2022-09-07T13:30:59.644Z,32.10
2022-09-07T13:33:46.946Z,31.27
2022-09-07T13:36:24.776Z,31.00
2022-09-07T13:38:58.738Z,31.01
2022-09-07T13:41:31.514Z,30.69
2022-09-07T13:44:00.655Z,30.40
2022-09-07T13:46:57.535Z,30.04
2022-09-07T13:49:56.358Z,30.06
2022-09-07T13:52:35.200Z,30.37
2022-09-07T13:55:28.843Z,30.17
2022-09-07T13:58:11.411Z,30.37
2022-09-07T14:01:02.329Z,30.65
2022-09-07T14:03:44.795Z,30.44
2022-09-07T14:06:28.410Z,30.54
2022-09-07T14:09:02.647Z,30.30
2022-09-07T14:11:43.974Z,30.46
2022-09-07T14:14:17.861Z,30.49
2022-09-07T14:16:47.364Z,29.99
2022-09-07T14:19:20.494Z,30.08
2022-09-07T14:21:58.928Z,30.27
2022-09-07T14:24:30.961Z,30.54
2022-09-07T14:26:59.593Z,30.60
2022-09-07T14:29:31.049Z,30.89
2022-09-07T14:32:03.275Z,30.62
2022-09-07T14:34:34.225Z,30.84
2022-09-07T14:37:07.023Z,30.58
2022-09-07T14:39:38.361Z,31.01
2022-09-07T14:42:07.762Z,31.22
2022-09-07T14:44:38.939Z,31.62
2022-09-07T14:47:24.464Z,31.64
2022-09-07T14:49:52.396Z,31.78
2022-09-07T14:52:26.174Z,31.74
2022-09-07T14:54:53.805Z,31.71
2022-09-07T14:57:30.556Z,31.55
2022-09-07T14:59:58.246Z,31.10
2022-09-07T15:02:36.366Z,30.65
2022-09-07T15:05:27.888Z,30.80
2022-09-07T15:07:58.462Z,30.87
2022-09-07T15:10:39.782Z,30.95
2022-09-07T15:13:29.228Z,30.89
2022-09-07T15:16:20.280Z,30.84
2022-09-07T15:18:53.587Z,30.84
2022-09-07T15:21:21.214Z,30.60
2022-09-07T15:23:52.487Z,30.48
2022-09-07T15:29:11.056Z,30.33
2022-09-07T15:31:41.715Z,30.49
2022-09-07T15:34:11.588Z,30.69
2022-09-07T15:36:40.743Z,30.82
2022-09-07T15:39:14.321Z,30.84
2022-09-07T15:41:40.868Z,30.96
2022-09-07T15:44:14.529Z,30.82
2022-09-07T15:47:42.082Z,31.19
2022-09-07T15:49:32.507Z,31.38
2022-09-07T15:52:07.000Z,30.99
2022-09-07T15:54:37.154Z,30.90
2022-09-07T15:59:55.094Z,30.34
2022-09-07T16:05:10.479Z,29.82
2022-09-07T16:10:24.028Z,29.53
2022-09-07T16:15:45.805Z,29.26
2022-09-07T16:18:16.584Z,29.05
2022-09-07T16:20:44.167Z,29.24
2022-09-07T16:23:15.295Z,29.20
2022-09-07T16:25:54.990Z,29.05
2022-09-07T16:28:23.236Z,28.95
2022-09-07T16:30:51.572Z,28.91
2022-09-07T16:33:18.190Z,28.64
2022-09-07T16:35:59.157Z,28.63
2022-09-07T16:41:14.503Z,28.28
2022-09-07T16:43:41.379Z,28.40
2022-09-07T16:46:12.710Z,28.49
2022-09-07T16:48:39.966Z,28.43
2022-09-07T16:51:06.994Z,28.52
2022-09-07T16:53:35.800Z,28.45
2022-09-07T16:56:03.674Z,28.33
2022-09-07T16:58:38.489Z,28.43
2022-09-07T17:01:07.019Z,28.51
2022-09-07T17:03:36.163Z,28.42
2022-09-07T17:06:05.212Z,28.35
2022-09-07T17:08:33.161Z,28.35
2022-09-07T17:11:15.935Z,28.35
2022-09-07T17:13:43.445Z,28.36
2022-09-07T17:16:11.737Z,28.23
2022-09-07T17:21:31.261Z,27.98
2022-09-07T17:23:59.931Z,28.02
2022-09-07T17:26:27.329Z,27.91
2022-09-07T17:28:59.677Z,27.80
2022-09-07T17:34:17.016Z,27.61
2022-09-07T17:36:43.583Z,27.46
2022-09-07T17:39:14.992Z,27.31
2022-09-07T17:41:43.237Z,27.23
2022-09-07T17:44:10.014Z,27.10
2022-09-07T17:46:36.800Z,26.97
2022-09-07T17:49:03.801Z,26.90
2022-09-07T17:51:32.656Z,26.72
2022-09-07T17:54:01.540Z,26.59
2022-09-07T17:56:28.731Z,26.47
2022-09-07T18:00:10.639Z,26.32
2022-09-07T18:01:42.718Z,26.24
2022-09-07T18:04:10.099Z,26.08
2022-09-07T18:06:38.063Z,25.94
2022-09-07T18:09:05.675Z,25.76
2022-09-07T18:11:49.015Z,25.68
2022-09-07T18:14:17.813Z,25.51
2022-09-07T18:16:49.334Z,25.41
2022-09-07T18:19:19.414Z,25.44
2022-09-07T18:21:54.247Z,25.38
2022-09-07T18:24:23.326Z,25.17
2022-09-07T18:26:52.747Z,25.13
2022-09-07T18:29:28.810Z,25.09
2022-09-07T18:31:58.176Z,24.89
2022-09-07T18:34:24.915Z,24.89
2022-09-07T18:36:56.553Z,24.80
2022-09-07T18:39:23.361Z,24.82
2022-09-07T18:41:49.954Z,24.72
2022-09-07T18:47:05.702Z,24.69
2022-09-07T18:49:32.495Z,24.64
2022-09-07T18:54:50.522Z,24.65
2022-09-07T18:57:17.362Z,24.62
2022-09-07T18:59:44.288Z,24.55
2022-09-07T19:02:11.214Z,24.54
2022-09-07T19:07:29.917Z,24.36
2022-09-07T19:09:57.072Z,24.29
2022-09-07T19:12:23.644Z,24.24
2022-09-07T19:14:51.788Z,24.22
2022-09-07T19:17:19.264Z,24.24
2022-09-07T19:19:45.838Z,24.22
2022-09-07T19:22:16.688Z,24.14
2022-09-07T19:24:47.629Z,24.07
2022-09-07T19:27:19.453Z,24.05
2022-09-07T19:29:46.077Z,23.89
2022-09-07T19:32:13.285Z,23.82
2022-09-07T19:34:41.821Z,23.68
2022-09-07T19:37:17.080Z,23.60
2022-09-07T19:39:43.746Z,23.50
2022-09-07T19:42:16.698Z,23.36
2022-09-07T19:44:45.733Z,23.40
2022-09-07T19:47:16.977Z,23.43
2022-09-07T19:49:48.501Z,23.44
2022-09-07T19:52:17.458Z,23.48
2022-09-07T19:54:44.093Z,23.44
2022-09-07T19:57:12.556Z,23.42
2022-09-07T19:59:39.110Z,23.37
2022-09-07T20:02:06.407Z,23.36
2022-09-07T20:04:33.070Z,23.37
2022-09-07T20:06:59.932Z,23.28
2022-09-07T20:09:26.810Z,23.32
2022-09-07T20:11:55.562Z,23.13
2022-09-07T20:14:23.712Z,23.18
2022-09-07T20:16:50.300Z,23.20
2022-09-07T20:19:18.029Z,23.26
2022-09-07T20:21:44.592Z,23.17
2022-09-07T20:24:11.691Z,23.11
2022-09-07T20:26:38.355Z,23.17
2022-09-07T20:29:26.231Z,23.09
2022-09-07T20:31:55.140Z,23.15
2022-09-07T20:34:21.853Z,23.08
2022-09-07T20:36:54.741Z,22.97
2022-09-07T20:39:21.785Z,22.97
2022-09-07T20:41:49.790Z,22.95
2022-09-07T20:44:16.789Z,22.98
2022-09-07T20:46:45.475Z,22.93
2022-09-07T20:49:16.024Z,22.85
2022-09-07T20:51:48.528Z,22.76
2022-09-07T20:54:15.245Z,22.63
2022-09-07T20:56:43.995Z,22.09
2022-09-07T20:59:13.232Z,22.22
2022-09-07T21:01:40.223Z,22.20
2022-09-07T21:04:07.131Z,22.32
2022-09-07T21:06:36.116Z,22.23
2022-09-07T21:09:03.575Z,22.18
2022-09-07T21:11:32.258Z,22.22
2022-09-07T21:14:01.118Z,22.49
2022-09-07T21:16:29.308Z,22.27
2022-09-07T21:18:57.825Z,22.31
2022-09-07T21:21:26.112Z,22.44
2022-09-07T21:23:58.683Z,22.42
2022-09-07T21:26:26.811Z,22.59
2022-09-07T21:28:56.919Z,22.51
2022-09-07T21:31:24.823Z,22.23
2022-09-07T21:33:56.023Z,22.32
2022-09-07T21:36:23.031Z,22.38
2022-09-07T21:38:51.526Z,22.35
2022-09-07T21:41:21.292Z,22.40
2022-09-07T21:43:49.161Z,22.36
2022-09-07T21:46:17.835Z,22.32
2022-09-07T21:48:45.493Z,22.21
2022-09-07T21:51:15.855Z,22.02
2022-09-07T21:53:43.654Z,21.91
2022-09-07T21:56:12.132Z,22.02
2022-09-07T21:58:41.078Z,21.91
2022-09-07T22:01:12.407Z,21.88
2022-09-07T22:03:39.802Z,21.87
2022-09-07T22:06:07.491Z,21.89
2022-09-07T22:08:34.943Z,21.83
2022-09-07T22:11:06.089Z,21.89
2022-09-07T22:13:33.416Z,21.85
2022-09-07T22:16:02.056Z,21.80
2022-09-07T22:18:30.386Z,21.85
2022-09-07T22:21:05.325Z,21.87
2022-09-07T22:23:33.676Z,21.92
2022-09-07T22:26:01.478Z,21.72
2022-09-07T22:28:28.899Z,21.77
2022-09-07T22:30:56.091Z,21.96
2022-09-07T22:33:24.643Z,21.95
2022-09-07T22:35:51.228Z,21.93
2022-09-07T22:38:18.259Z,21.92
2022-09-07T22:40:45.104Z,21.93
2022-09-07T22:43:12.759Z,21.95
2022-09-07T22:45:39.439Z,21.85
2022-09-07T22:48:06.404Z,21.72
2022-09-07T22:50:34.914Z,21.78
2022-09-07T22:53:01.635Z,21.84
2022-09-07T22:55:28.521Z,21.88
2022-09-07T22:57:55.408Z,21.89
2022-09-07T23:00:21.958Z,21.89
2022-09-07T23:02:48.764Z,21.93
2022-09-07T23:05:15.763Z,21.96
2022-09-07T23:07:43.850Z,21.90
2022-09-07T23:10:10.998Z,21.87
2022-09-07T23:12:37.653Z,21.80
2022-09-07T23:15:05.058Z,21.80
2022-09-07T23:17:33.692Z,21.81
2022-09-07T23:20:00.530Z,21.73
2022-09-07T23:22:27.153Z,21.78
2022-09-07T23:24:56.202Z,21.75
2022-09-07T23:27:23.187Z,21.74
2022-09-07T23:29:49.908Z,21.75
2022-09-07T23:32:17.021Z,21.68
2022-09-07T23:34:43.946Z,21.59
2022-09-07T23:37:10.969Z,21.68
2022-09-07T23:39:41.348Z,21.68
2022-09-07T23:42:09.710Z,21.71
2022-09-07T23:44:36.641Z,21.76
2022-09-07T23:47:03.331Z,21.68
2022-09-07T23:49:30.159Z,21.73
2022-09-07T23:51:56.894Z,21.74
2022-09-07T23:54:24.146Z,21.76
2022-09-07T23:56:51.351Z,21.83
2022-09-07T23:59:19.596Z,21.76
